In Rescue
 
Open Full Screen Window  High Contrast Mode
July 23, 2019 1:33 AM EDT
Weather Information
Wind Direction
  ---
Wind Speed
  00 kt (0 mph)
Wind Gust
  00 kt (0 mph)
Altimeter
30.01 in
Visibility
10 SM
Temperature
17° C
63° F
Dewpoint
14° C
57° F
Humidity
83%
1hr Rain Fall
00.00 in.
24hr Rain Fall
00.01 in.
Sky Condition
Clear
VFR

METAR KMRT 230533Z AUTO 00000KT 10SM CLR 17/14 A3001 RMK AO2 T01730137

FAA Disclaimer: The data displayed is for advisory purposes only and is not to be used for flight planning or operations.